To NAV CANADA Home Page Login to a new session Search on AWWS site Feedback and Comments Disclaimer Vers la page française équivalente Tips FAQ What's new on the site To the Forecasts and Observations / NOTAM section To "File a Flight Plan" website Publications and other links Update of the User's profile FIC Telephone Numbers My Weather Data Folder Route Weather Data Regional Weather Data Local Weather Data To the Forecasts and Observations / NOTAM section
Request Generated 01/21/2017 at 02:01:43 UTC . Weather information available at that time is displayed.

METAR/TAF

KELOWNA/BC    (show WxCam)

METAR CYLW 210100Z AUTO 09003KT 9SM OVC100 01/M00 A2930 RMK SLP937=
METAR CYLW 210000Z AUTO 18003KT 9SM FEW014 BKN100 02/00 A2930 RMK
SLP938=
METAR CYLW 202300Z AUTO 35004KT 330V040 9SM SCT100 BKN240 03/01 A2930
RMK SLP938=

TAF CYLW 210038Z 2101/2113 VRB03KT P6SM FEW015 SCT050 BKN110
RMK FCST BASED ON AUTO OBS. NXT FCST BY 210700Z=
Your time UTC time
Weather data provided by Environment Canada and NAV CANADA